Time;durP1;ratioP1;P1;durP2;ratioP2;P2;SDS_P1;SDS_P2;PMS_P1;PMS_P2;Temp;Humidity;BMP_temperature;BMP_pressure;BME280_temperature;BME280_humidity;BME280_pressure;Samples;Min_cycle;Max_cycle;Signal;HPM_P1;HPM_P2
2022/09/23 00:01:09;;;;;;;;;;;;;;;12.86;57.51;100120.31;5057264;28;19913;-88
2022/09/23 00:03:36;;;;;;;;;;;;;;;12.68;57.43;100115.09;5056422;28;19909;-88
2022/09/23 00:06:03;;;;;;;;;;;;;;;12.84;57.51;100112.38;5057106;28;20429;-88
2022/09/23 00:08:28;;;;;;;;;;;;;;;12.79;57.26;100109.63;5057067;28;19915;-87
2022/09/23 00:10:54;;;;;;;;;;;;;;;12.75;57.74;100120.31;5057632;28;19909;-87
2022/09/23 00:13:20;;;;;;;;;;;;;;;12.92;57.57;100119.22;5056485;28;19909;-87
2022/09/23 00:15:45;;;;;;;;;;;;;;;12.79;57.64;100115.94;5057557;28;19909;-87
2022/09/23 00:18:11;;;;;;;;;;;;;;;12.79;57.24;100115.13;5057162;28;19912;-87
2022/09/23 00:20:36;;;;;;;;;;;;;;;12.88;57.37;100110.72;5056811;28;19919;-87
2022/09/23 00:23:01;;;;;;;;;;;;;;;12.92;57.10;100111.00;5056831;28;19908;-86
2022/09/23 00:25:28;;;;;;;;;;;;;;;12.92;57.19;100109.09;5056565;28;19912;-86
2022/09/23 00:27:53;;;;;;;;;;;;;;;13.02;56.78;100102.81;5057253;28;19909;-86
2022/09/23 00:30:19;;;;;;;;;;;;;;;13.03;56.74;100103.63;5057120;28;20413;-87
2022/09/23 00:32:44;;;;;;;;;;;;;;;13.08;56.85;100104.47;5056774;28;19962;-87
2022/09/23 00:35:09;;;;;;;;;;;;;;;13.07;56.67;100102.81;5056702;28;19960;-87
2022/09/23 00:37:34;;;;;;;;;;;;;;;13.15;56.65;100106.09;5056583;28;19908;-86
2022/09/23 00:40:00;;;;;;;;;;;;;;;13.25;56.15;100110.75;5056944;28;19908;-86
2022/09/23 00:42:25;;;;;;;;;;;;;;;13.35;56.07;100107.19;5056517;28;19909;-86
2022/09/23 00:44:52;;;;;;;;;;;;;;;13.19;56.20;100108.03;5056199;28;19909;-87
2022/09/23 00:47:23;;;;;;;;;;;;;;;13.21;56.42;100107.75;5056890;28;19961;-87
2022/09/23 00:49:50;;;;;;;;;;;;;;;13.18;56.21;100100.91;5056088;28;19909;-87
2022/09/23 00:52:17;;;;;;;;;;;;;;;13.20;55.76;100108.81;5056129;28;19948;-87
2022/09/23 00:54:44;;;;;;;;;;;;;;;13.19;55.75;100102.56;5056318;28;19955;-87
2022/09/23 00:57:10;;;;;;;;;;;;;;;13.14;56.33;100105.28;5055135;28;19916;-87
2022/09/23 00:59:35;;;;;;;;;;;;;;;13.08;56.18;100098.16;5055905;28;19908;-87
2022/09/23 01:02:01;;;;;;;;;;;;;;;12.91;56.58;100093.78;5055856;28;19915;-87
2022/09/23 01:04:27;;;;;;;;;;;;;;;12.93;57.16;100099.81;5056562;28;19940;-87
2022/09/23 01:06:52;;;;;;;;;;;;;;;12.89;56.89;100098.72;5056114;28;19909;-87
2022/09/23 01:09:19;;;;;;;;;;;;;;;12.95;56.67;100086.69;5055962;28;19909;-87
2022/09/23 01:11:49;;;;;;;;;;;;;;;12.98;56.51;100092.69;5056292;28;19958;-87
2022/09/23 01:14:17;;;;;;;;;;;;;;;12.93;56.29;100086.13;5056506;28;19955;-87
2022/09/23 01:16:47;;;;;;;;;;;;;;;12.91;56.78;100088.31;5056648;28;19908;-87
2022/09/23 01:19:12;;;;;;;;;;;;;;;13.00;56.39;100082.28;5055672;28;19955;-87
2022/09/23 01:21:59;;;;;;;;;;;;;;;12.95;56.46;100074.91;5056211;28;19959;-87
2022/09/23 01:24:36;;;;;;;;;;;;;;;13.04;56.36;100078.72;5055716;28;19909;-87
2022/09/23 01:27:21;;;;;;;;;;;;;;;13.10;56.29;100085.00;5056367;28;19909;-87
2022/09/23 01:29:49;;;;;;;;;;;;;;;13.22;56.08;100078.47;5056116;28;20245;-87
2022/09/23 01:32:20;;;;;;;;;;;;;;;13.29;56.14;100079.00;5055902;28;19909;-87
2022/09/23 01:34:55;;;;;;;;;;;;;;;13.29;55.59;100077.06;5055977;28;19920;-87
2022/09/23 01:37:32;;;;;;;;;;;;;;;13.34;55.82;100070.78;5055621;28;19909;-87
2022/09/23 01:39:57;;;;;;;;;;;;;;;13.26;56.34;100072.13;5055445;28;19920;-87
2022/09/23 01:42:28;;;;;;;;;;;;;;;13.24;56.87;100068.84;5070683;28;19909;-87
2022/09/23 01:44:59;;;;;;;;;;;;;;;13.30;55.91;100073.22;5055896;28;19976;-87
2022/09/23 01:47:34;;;;;;;;;;;;;;;13.19;56.58;100066.97;5055487;28;20346;-87
2022/09/23 01:50:02;;;;;;;;;;;;;;;13.08;56.35;100059.84;5056375;28;19918;-87
2022/09/23 01:52:35;;;;;;;;;;;;;;;12.98;56.41;100060.66;5055926;28;20329;-88
2022/09/23 01:55:10;;;;;;;;;;;;;;;12.85;56.12;100067.50;5056239;28;19931;-87
2022/09/23 01:57:39;;;;;;;;;;;;;;;12.86;56.26;100060.09;5053904;28;19924;-87
2022/09/23 02:00:08;;;;;;;;;;;;;;;12.75;56.42;100060.13;5053588;28;19923;-87
2022/09/23 02:02:40;;;;;;;;;;;;;;;12.88;56.42;100058.75;5055313;28;19969;-88
2022/09/23 02:05:17;;;;;;;;;;;;;;;12.69;56.68;100056.53;5053959;28;20329;-87
2022/09/23 02:07:45;;;;;;;;;;;;;;;12.77;56.56;100057.09;5055815;28;20272;-87
2022/09/23 02:10:26;;;;;;;;;;;;;;;12.70;56.97;100054.63;5054932;28;20008;-87
2022/09/23 02:12:53;;;;;;;;;;;;;;;12.91;56.30;100055.47;5055187;28;19912;-86
2022/09/23 02:15:22;;;;;;;;;;;;;;;12.81;56.14;100059.00;5055279;28;19935;-87
2022/09/23 02:17:51;;;;;;;;;;;;;;;12.88;56.32;100058.75;5054917;28;19917;-87
2022/09/23 02:20:19;;;;;;;;;;;;;;;13.04;55.89;100054.09;5054628;28;19908;-87
2022/09/23 02:22:50;;;;;;;;;;;;;;;13.00;56.06;100057.66;5054750;28;20297;-87
2022/09/23 02:25:16;;;;;;;;;;;;;;;12.92;56.27;100054.38;5055402;28;19908;-86
2022/09/23 02:27:46;;;;;;;;;;;;;;;12.82;56.27;100046.16;5055911;28;20361;-87
2022/09/23 02:30:16;;;;;;;;;;;;;;;12.81;56.63;100047.25;5059224;28;19978;-87
2022/09/23 02:33:00;;;;;;;;;;;;;;;12.87;56.34;100040.69;5058654;28;19915;-87
2022/09/23 02:35:35;;;;;;;;;;;;;;;12.90;56.31;100039.31;5059646;28;19912;-87
2022/09/23 02:38:21;;;;;;;;;;;;;;;12.93;56.21;100041.53;5058881;28;19999;-87
2022/09/23 02:40:52;;;;;;;;;;;;;;;12.81;56.62;100030.84;5047997;28;19916;-87
2022/09/23 02:43:28;;;;;;;;;;;;;;;12.83;56.37;100034.94;5059251;28;19919;-87
2022/09/23 02:45:54;;;;;;;;;;;;;;;12.87;56.34;100023.47;5059108;28;20018;-87
2022/09/23 02:48:29;;;;;;;;;;;;;;;12.84;56.58;100022.09;5058750;28;19909;-87
2022/09/23 02:50:54;;;;;;;;;;;;;;;12.76;56.82;100028.94;5059152;28;19908;-87
2022/09/23 02:53:21;;;;;;;;;;;;;;;12.86;56.38;100019.88;5058740;28;20008;-87
2022/09/23 02:55:47;;;;;;;;;;;;;;;12.76;56.91;100022.63;5058644;28;19935;-87
2022/09/23 02:58:12;;;;;;;;;;;;;;;12.76;57.26;100014.41;5058433;28;19912;-87
2022/09/23 03:00:46;;;;;;;;;;;;;;;12.78;56.64;100021.25;5058380;28;20007;-87
2022/09/23 03:03:18;;;;;;;;;;;;;;;12.71;56.62;100010.59;5059143;28;19955;-87
2022/09/23 03:05:49;;;;;;;;;;;;;;;12.64;57.02;100009.22;5058788;28;19908;-87
2022/09/23 03:08:37;;;;;;;;;;;;;;;12.67;57.18;100004.00;5058899;28;19912;-87
2022/09/23 03:11:07;;;;;;;;;;;;;;;12.77;56.70;99997.75;5055455;28;19919;-88
2022/09/23 03:13:41;;;;;;;;;;;;;;;12.82;56.53;99994.19;5058532;28;19916;-88
2022/09/23 03:16:23;;;;;;;;;;;;;;;12.86;56.74;99995.25;5058008;28;19948;-88
2022/09/23 03:18:52;;;;;;;;;;;;;;;13.05;56.25;99994.72;5058406;28;19913;-89
2022/09/23 03:21:20;;;;;;;;;;;;;;;12.95;56.22;99999.13;5057903;28;19909;-89
2022/09/23 03:23:47;;;;;;;;;;;;;;;13.02;56.49;99997.97;5058239;28;20000;-89
2022/09/23 03:26:22;;;;;;;;;;;;;;;13.01;56.31;99999.91;5058342;28;19909;-89
2022/09/23 03:28:49;;;;;;;;;;;;;;;13.08;56.42;99992.22;5057629;28;19970;-89
2022/09/23 03:31:14;;;;;;;;;;;;;;;12.94;56.90;100002.94;5057972;28;19909;-89
2022/09/23 03:33:46;;;;;;;;;;;;;;;13.00;56.57;100002.91;5058352;28;19947;-88
2022/09/23 03:39:02;;;;;;;;;;;;;;;13.03;56.27;99994.16;5056748;28;20361;-88
2022/09/23 03:41:33;;;;;;;;;;;;;;;13.12;56.12;99997.16;5057813;28;19908;-89
2022/09/23 03:43:59;;;;;;;;;;;;;;;12.94;57.88;100002.09;5057748;28;19916;-88
2022/09/23 03:46:26;;;;;;;;;;;;;;;13.04;56.66;99990.31;5057570;28;19909;-89
2022/09/23 03:48:51;;;;;;;;;;;;;;;12.95;56.67;99995.53;5058071;28;19916;-89
2022/09/23 03:51:19;;;;;;;;;;;;;;;12.84;56.81;99994.72;5057123;28;19924;-88
2022/09/23 03:53:44;;;;;;;;;;;;;;;12.92;57.09;99993.34;5057252;28;19909;-88
2022/09/23 03:56:10;;;;;;;;;;;;;;;12.96;56.95;99992.53;5057929;28;19923;-88
2022/09/23 03:58:35;;;;;;;;;;;;;;;12.87;56.73;99980.50;5057308;28;19916;-88
2022/09/23 04:01:01;;;;;;;;;;;;;;;13.01;56.82;99975.28;5056465;28;19908;-88
2022/09/23 04:03:28;;;;;;;;;;;;;;;13.04;56.31;99982.09;5057627;28;19913;-88
2022/09/23 04:05:53;;;;;;;;;;;;;;;13.01;56.48;99982.66;5057300;28;20376;-88
2022/09/23 04:08:18;;;;;;;;;;;;;;;13.02;56.75;99973.34;5057235;28;19909;-88
2022/09/23 04:10:43;;;;;;;;;;;;;;;13.04;56.55;99973.91;5056681;28;19923;-88
2022/09/23 04:13:08;;;;;;;;;;;;;;;13.06;56.63;99977.19;5056961;28;20342;-88
2022/09/23 04:15:33;;;;;;;;;;;;;;;12.96;57.48;99976.09;5057298;28;19908;-88
2022/09/23 04:17:59;;;;;;;;;;;;;;;13.01;57.46;99983.50;5057030;28;20317;-88
2022/09/23 04:20:28;;;;;;;;;;;;;;;12.99;56.99;99977.47;5057048;28;19908;-88
2022/09/23 04:22:54;;;;;;;;;;;;;;;13.06;57.69;99971.69;5056736;28;19958;-88
2022/09/23 04:25:19;;;;;;;;;;;;;;;12.92;57.43;99976.94;5056782;28;19908;-88
2022/09/23 04:27:45;;;;;;;;;;;;;;;12.84;58.95;99975.56;5056861;28;19916;-88
2022/09/23 04:30:10;;;;;;;;;;;;;;;12.73;58.25;99970.09;5057286;28;19908;-88
2022/09/23 04:32:35;;;;;;;;;;;;;;;12.84;58.82;99972.84;5056313;28;19908;-88
2022/09/23 04:35:01;;;;;;;;;;;;;;;12.65;59.45;99958.91;5056906;28;19912;-88
2022/09/23 04:37:26;;;;;;;;;;;;;;;12.72;58.83;99962.19;5056703;28;19919;-88
2022/09/23 04:39:51;;;;;;;;;;;;;;;12.83;57.98;99952.06;5055405;28;19909;-88
2022/09/23 04:42:16;;;;;;;;;;;;;;;12.86;57.51;99953.41;5055585;28;19934;-88
2022/09/23 04:44:41;;;;;;;;;;;;;;;12.83;57.58;99943.84;5056301;28;19955;-88
2022/09/23 04:47:07;;;;;;;;;;;;;;;12.66;57.60;99949.59;5056303;28;19909;-89
2022/09/23 04:49:32;;;;;;;;;;;;;;;12.64;57.45;99949.03;5056070;28;19916;-88
2022/09/23 04:51:57;;;;;;;;;;;;;;;12.70;58.60;99948.78;5056229;28;19995;-88
2022/09/23 04:54:23;;;;;;;;;;;;;;;12.82;57.17;99932.06;5056180;28;20265;-88
2022/09/23 04:56:48;;;;;;;;;;;;;;;12.64;57.45;99944.41;5056772;28;19986;-88
2022/09/23 04:59:13;;;;;;;;;;;;;;;12.73;57.50;99936.47;5056356;28;20003;-88
2022/09/23 05:01:38;;;;;;;;;;;;;;;12.68;57.52;99940.03;5056155;28;19909;-88
2022/09/23 05:04:07;;;;;;;;;;;;;;;12.70;57.61;99937.84;5055905;28;20003;-88
2022/09/23 05:06:35;;;;;;;;;;;;;;;12.72;57.80;99934.81;5056048;28;19916;-88
2022/09/23 05:09:03;;;;;;;;;;;;;;;12.67;57.46;99943.84;5056815;28;19909;-88
2022/09/23 05:11:30;;;;;;;;;;;;;;;12.73;57.63;99936.47;5056021;28;19999;-88
2022/09/23 05:13:55;;;;;;;;;;;;;;;12.70;57.65;99932.38;5055814;28;19916;-87
2022/09/23 05:16:22;;;;;;;;;;;;;;;12.73;58.20;99936.47;5056050;28;20266;-88
2022/09/23 05:18:47;;;;;;;;;;;;;;;12.80;57.40;99934.25;5056287;28;20334;-88
2022/09/23 05:21:14;;;;;;;;;;;;;;;12.71;57.39;99934.00;5055752;28;19932;-88
2022/09/23 05:23:40;;;;;;;;;;;;;;;12.72;57.37;99941.13;5055874;28;20265;-89
2022/09/23 05:26:06;;;;;;;;;;;;;;;12.75;57.44;99944.41;5055749;28;19909;-88
2022/09/23 05:28:32;;;;;;;;;;;;;;;12.72;57.35;99941.13;5055787;28;19909;-88
2022/09/23 05:31:17;;;;;;;;;;;;;;;12.65;58.81;99939.75;5056262;28;20042;-88
2022/09/23 05:33:44;;;;;;;;;;;;;;;12.69;58.10;99949.06;5055914;28;19916;-88
2022/09/23 05:36:10;;;;;;;;;;;;;;;12.63;58.64;99948.22;5055449;28;19920;-88
2022/09/23 05:38:35;;;;;;;;;;;;;;;12.64;58.40;99949.88;5055374;28;20261;-87
2022/09/23 05:41:02;;;;;;;;;;;;;;;12.70;58.73;99945.22;5055310;28;20409;-88
2022/09/23 05:43:28;;;;;;;;;;;;;;;12.76;57.88;99941.38;5055401;28;19999;-88
2022/09/23 05:46:00;;;;;;;;;;;;;;;12.71;59.08;99944.94;5055204;28;20046;-88
2022/09/23 05:48:26;;;;;;;;;;;;;;;12.75;57.96;99955.34;5055235;28;19994;-88
2022/09/23 05:50:51;;;;;;;;;;;;;;;12.85;57.75;99955.34;5054303;28;19909;-87
2022/09/23 05:53:17;;;;;;;;;;;;;;;12.81;58.67;99948.78;5055263;28;19913;-88
2022/09/23 05:55:43;;;;;;;;;;;;;;;12.65;59.75;99953.44;5055370;28;19912;-88
2022/09/23 05:58:08;;;;;;;;;;;;;;;12.60;59.54;99955.06;5054969;28;19912;-88
2022/09/23 06:00:34;;;;;;;;;;;;;;;12.63;58.56;99948.22;5055212;28;20004;-88
2022/09/23 06:02:59;;;;;;;;;;;;;;;12.53;61.32;99957.25;5054248;28;19916;-89
2022/09/23 06:05:25;;;;;;;;;;;;;;;12.68;59.06;99948.22;5055754;28;19954;-88
2022/09/23 06:07:50;;;;;;;;;;;;;;;12.76;58.38;99954.22;5054900;28;19909;-89
2022/09/23 06:10:15;;;;;;;;;;;;;;;12.81;58.25;99937.84;5055408;28;19932;-88
2022/09/23 06:12:43;;;;;;;;;;;;;;;12.70;58.20;99953.41;5054563;28;19947;-88
2022/09/23 06:15:29;;;;;;;;;;;;;;;12.79;60.41;99949.06;5055107;28;19909;-84
2022/09/23 06:17:54;;;;;;;;;;;;;;;12.97;59.60;99938.63;5055393;28;19909;-90
2022/09/23 06:20:19;;;;;;;;;;;;;;;12.80;58.88;99944.38;5055537;28;20003;-88
2022/09/23 06:22:44;;;;;;;;;;;;;;;12.91;58.28;99937.00;5055096;28;20250;-88
2022/09/23 06:25:11;;;;;;;;;;;;;;;12.88;58.07;99943.00;5055772;28;19913;-89
2022/09/23 06:27:36;;;;;;;;;;;;;;;13.01;58.23;99944.34;5054105;28;19949;-88
2022/09/23 06:30:01;;;;;;;;;;;;;;;13.06;58.32;99939.69;5054938;28;19915;-88
2022/09/23 06:32:26;;;;;;;;;;;;;;;13.04;58.99;99941.06;5054611;28;19932;-89
2022/09/23 06:34:51;;;;;;;;;;;;;;;13.01;59.33;99945.19;5054295;28;20345;-90
2022/09/23 06:37:17;;;;;;;;;;;;;;;12.90;60.58;99941.63;5054638;28;19908;-90
2022/09/23 06:39:42;;;;;;;;;;;;;;;13.01;61.23;99936.97;5054379;28;19923;-88
2022/09/23 06:42:08;;;;;;;;;;;;;;;12.99;59.95;99947.38;5054852;28;19924;-88
2022/09/23 06:44:33;;;;;;;;;;;;;;;12.99;60.52;99952.84;5054434;28;19912;-86
2022/09/23 06:46:59;;;;;;;;;;;;;;;13.07;60.58;99952.28;5054959;28;20292;-86
2022/09/23 06:49:24;;;;;;;;;;;;;;;13.13;61.20;99955.84;5054699;28;19951;-87
2022/09/23 06:51:49;;;;;;;;;;;;;;;13.10;60.55;99956.38;5055201;28;19931;-88
2022/09/23 06:54:14;;;;;;;;;;;;;;;13.19;59.85;99952.00;5055027;28;19908;-87
2022/09/23 06:56:41;;;;;;;;;;;;;;;13.30;59.24;99949.22;5054445;28;19908;-86
2022/09/23 06:59:09;;;;;;;;;;;;;;;13.33;59.56;99954.13;5054578;28;19917;-87
2022/09/23 07:01:34;;;;;;;;;;;;;;;13.36;59.68;99948.09;5055154;28;19991;-88
2022/09/23 07:04:00;;;;;;;;;;;;;;;13.45;58.57;99945.59;5054143;28;19943;-87
2022/09/23 07:06:25;;;;;;;;;;;;;;;13.49;59.76;99941.19;5054920;28;19912;-87
2022/09/23 07:08:51;;;;;;;;;;;;;;;13.56;58.24;99935.47;5054352;28;19995;-87
2022/09/23 07:11:21;;;;;;;;;;;;;;;13.69;58.24;99935.94;5054047;28;20363;-87
2022/09/23 07:13:46;;;;;;;;;;;;;;;13.86;58.24;99939.16;5056510;28;20337;-87
2022/09/23 07:16:11;;;;;;;;;;;;;;;13.93;57.57;99943.50;5058076;28;19995;-87
2022/09/23 07:18:37;;;;;;;;;;;;;;;14.04;57.47;99953.28;5058007;28;19956;-87
2022/09/23 07:21:05;;;;;;;;;;;;;;;14.03;57.98;99954.41;5058189;28;19908;-86
2022/09/23 07:23:32;;;;;;;;;;;;;;;14.05;57.84;99952.19;5058858;28;19909;-90
2022/09/23 07:25:57;;;;;;;;;;;;;;;14.14;58.26;99951.59;5057863;28;19939;-89
2022/09/23 07:28:23;;;;;;;;;;;;;;;14.20;57.18;99953.19;5057783;28;19909;-89
2022/09/23 07:30:48;;;;;;;;;;;;;;;14.30;57.08;99958.59;5058066;28;19935;-88
2022/09/23 07:33:13;;;;;;;;;;;;;;;14.24;57.13;99959.72;5057412;28;19915;-89
2022/09/23 07:35:39;;;;;;;;;;;;;;;14.35;56.78;99957.75;5057097;28;19913;-86
2022/09/23 07:38:05;;;;;;;;;;;;;;;14.31;57.24;99952.03;5057635;28;19912;-90
2022/09/23 07:40:30;;;;;;;;;;;;;;;14.21;57.13;99952.09;5057542;28;19915;-87
2022/09/23 07:42:55;;;;;;;;;;;;;;;14.22;57.19;99964.69;5057436;28;20254;-83
2022/09/23 07:45:22;;;;;;;;;;;;;;;14.44;56.38;99964.25;5057933;28;19908;-83
2022/09/23 07:47:48;;;;;;;;;;;;;;;14.37;56.98;99963.75;5057214;28;19908;-84
2022/09/23 07:50:13;;;;;;;;;;;;;;;14.46;56.81;99955.75;5058052;28;19915;-83
2022/09/23 07:52:39;;;;;;;;;;;;;;;14.57;56.55;99957.31;5057863;28;19908;-83
2022/09/23 07:55:05;;;;;;;;;;;;;;;14.62;56.50;99959.19;5057327;28;19908;-83
2022/09/23 07:57:30;;;;;;;;;;;;;;;14.60;56.45;99955.91;5056125;28;19995;-83
2022/09/23 07:59:55;;;;;;;;;;;;;;;14.44;56.89;99953.28;5057795;28;19912;-85
2022/09/23 08:02:21;;;;;;;;;;;;;;;14.58;56.44;99955.38;5057403;28;19909;-83
2022/09/23 08:04:47;;;;;;;;;;;;;;;14.56;56.53;99960.34;5057095;28;19918;-86
2022/09/23 08:07:12;;;;;;;;;;;;;;;14.51;56.62;99958.44;5057658;28;19995;-86
2022/09/23 08:09:40;;;;;;;;;;;;;;;14.70;56.49;99957.75;5056970;28;20366;-86
2022/09/23 08:12:05;;;;;;;;;;;;;;;14.66;56.93;99959.44;5056923;28;19912;-83
2022/09/23 08:14:31;;;;;;;;;;;;;;;14.68;57.19;99962.69;5057168;28;20302;-87
2022/09/23 08:16:56;;;;;;;;;;;;;;;14.85;56.47;99961.50;5057082;28;19939;-87
2022/09/23 08:19:21;;;;;;;;;;;;;;;14.77;57.04;99963.72;5057118;28;19908;-87
2022/09/23 08:21:47;;;;;;;;;;;;;;;15.00;56.28;99961.34;5056415;28;19912;-87
2022/09/23 08:24:16;;;;;;;;;;;;;;;15.00;56.99;99963.25;5056700;28;19916;-87
2022/09/23 08:26:42;;;;;;;;;;;;;;;14.93;56.18;99958.94;5055747;28;19951;-87
2022/09/23 08:29:10;;;;;;;;;;;;;;;14.95;56.71;99964.13;5056823;28;19962;-88
2022/09/23 08:31:36;;;;;;;;;;;;;;;14.97;57.29;99959.16;5072289;28;19995;-88
2022/09/23 08:34:01;;;;;;;;;;;;;;;15.00;57.27;99955.84;5056253;28;20337;-88
2022/09/23 08:36:26;;;;;;;;;;;;;;;15.15;56.56;99954.84;5057474;28;19955;-88
2022/09/23 08:38:51;;;;;;;;;;;;;;;15.07;56.70;99962.94;5056977;28;20353;-91
2022/09/23 08:41:26;;;;;;;;;;;;;;;15.04;57.33;99956.91;5056401;28;19912;-86
2022/09/23 08:43:53;;;;;;;;;;;;;;;15.20;56.75;99956.75;5056647;28;19923;-86
2022/09/23 08:46:23;;;;;;;;;;;;;;;15.10;57.28;99948.59;5057756;28;19908;-87
2022/09/23 08:48:49;;;;;;;;;;;;;;;15.00;56.69;99952.28;5057431;28;19948;-82
2022/09/23 08:51:38;;;;;;;;;;;;;;;14.88;57.81;99955.41;5056763;28;19908;-83
2022/09/23 08:54:04;;;;;;;;;;;;;;;15.07;57.12;99955.50;5056240;28;19958;-88
2022/09/23 08:56:29;;;;;;;;;;;;;;;15.13;57.59;99951.59;5056846;28;19908;-87
2022/09/23 08:59:05;;;;;;;;;;;;;;;15.09;57.35;99952.47;5056179;28;19909;-84
2022/09/23 09:01:37;;;;;;;;;;;;;;;15.10;57.84;99951.34;5055991;28;20254;-84
2022/09/23 09:04:10;;;;;;;;;;;;;;;15.20;57.81;99950.41;5056103;28;20299;-90
2022/09/23 09:06:39;;;;;;;;;;;;;;;15.33;56.55;99944.25;5056264;28;20001;-86
2022/09/23 09:09:08;;;;;;;;;;;;;;;15.34;56.92;99942.28;5056029;28;19909;-84
2022/09/23 09:11:39;;;;;;;;;;;;;;;15.38;56.96;99940.59;5055939;28;20433;-89
2022/09/23 09:14:11;;;;;;;;;;;;;;;15.40;57.06;99943.88;5055714;28;19932;-85
2022/09/23 09:17:03;;;;;;;;;;;;;;;15.20;57.09;99945.75;5056375;28;19920;-86
2022/09/23 09:19:51;;;;;;;;;;;;;;;15.43;57.09;99943.31;5054770;28;19909;-86
2022/09/23 09:22:23;;;;;;;;;;;;;;;15.54;57.49;99937.69;5045596;28;19931;-87
2022/09/23 09:24:49;;;;;;;;;;;;;;;15.57;58.00;99935.16;5055516;28;19909;-87
2022/09/23 09:27:15;;;;;;;;;;;;;;;15.64;57.15;99938.34;5056146;28;19908;-87
2022/09/23 09:29:43;;;;;;;;;;;;;;;15.51;57.18;99945.41;5056230;28;19992;-87
2022/09/23 09:32:32;;;;;;;;;;;;;;;15.55;57.77;99944.81;5055572;28;19909;-87
2022/09/23 09:35:00;;;;;;;;;;;;;;;15.73;57.35;99944.03;5052585;28;19913;-88
2022/09/23 09:37:32;;;;;;;;;;;;;;;15.75;57.80;99940.97;5056164;28;19909;-86
2022/09/23 09:39:58;;;;;;;;;;;;;;;15.56;57.68;99935.47;5055068;28;19909;-89
2022/09/23 09:42:25;;;;;;;;;;;;;;;15.54;57.84;99929.44;5055293;28;19912;-87
2022/09/23 09:44:57;;;;;;;;;;;;;;;15.69;58.42;99934.72;5055318;28;19909;-88
2022/09/23 09:47:45;;;;;;;;;;;;;;;15.61;58.11;99932.63;5055260;28;19908;-86
2022/09/23 09:50:12;;;;;;;;;;;;;;;15.75;57.36;99922.56;5055230;28;19943;-86
2022/09/23 09:52:38;;;;;;;;;;;;;;;15.69;57.85;99931.16;5055742;28;19908;-87
2022/09/23 09:55:12;;;;;;;;;;;;;;;15.55;56.91;99931.88;5055859;28;20014;-83
2022/09/23 09:58:00;;;;;;;;;;;;;;;15.58;57.40;99927.75;5055113;28;20256;-83
2022/09/23 10:00:26;;;;;;;;;;;;;;;15.61;56.78;99925.22;5055729;28;20011;-83
2022/09/23 10:02:52;;;;;;;;;;;;;;;15.70;56.91;99922.59;5055047;28;19950;-84
2022/09/23 10:05:29;;;;;;;;;;;;;;;15.91;56.06;99919.59;5054895;28;19954;-84
2022/09/23 10:07:54;;;;;;;;;;;;;;;16.06;55.81;99917.75;5055326;28;19916;-84
2022/09/23 10:10:24;;;;;;;;;;;;;;;15.91;55.83;99916.84;5053624;28;19908;-84
2022/09/23 10:12:49;;;;;;;;;;;;;;;15.91;56.81;99914.09;5054797;28;20019;-84
2022/09/23 10:15:39;;;;;;;;;;;;;;;16.06;55.92;99924.09;5054874;28;19960;-84
2022/09/23 10:18:18;;;;;;;;;;;;;;;16.01;55.27;99906.81;5055811;28;20253;-84
2022/09/23 10:20:43;;;;;;;;;;;;;;;16.03;54.08;99916.41;5054838;28;19912;-87
2022/09/23 10:23:14;;;;;;;;;;;;;;;16.28;53.87;99914.38;5053970;28;19909;-87
2022/09/23 10:25:40;;;;;;;;;;;;;;;16.30;53.94;99917.66;5055401;28;20329;-87
2022/09/23 10:28:24;;;;;;;;;;;;;;;16.16;54.22;99919.53;5055288;28;19909;-87
2022/09/23 10:31:11;;;;;;;;;;;;;;;16.27;54.13;99910.00;5054583;28;19908;-88
2022/09/23 10:33:59;;;;;;;;;;;;;;;16.18;54.78;99918.13;5054655;28;19919;-86
2022/09/23 10:36:25;;;;;;;;;;;;;;;16.27;54.78;99914.69;5056636;28;19912;-86
2022/09/23 10:46:37;;;;;;;;;;;;;;;16.19;53.95;99903.25;5055236;28;19908;-86
2022/09/23 10:47:33;;;;;;;;;;;;;;;16.20;53.73;99904.88;5054956;28;19966;-86
2022/09/23 10:50:16;;;;;;;;;;;;;;;16.19;53.67;99902.44;5059109;28;20280;-86
2022/09/23 10:52:41;;;;;;;;;;;;;;;16.33;53.81;99902.50;5058712;28;19974;-86
2022/09/23 10:55:30;;;;;;;;;;;;;;;16.26;53.75;99896.53;5059082;28;19970;-86
2022/09/23 10:58:04;;;;;;;;;;;;;;;16.13;53.45;99887.94;5058972;28;19916;-87
2022/09/23 11:00:59;;;;;;;;;;;;;;;16.27;53.48;99890.72;5058639;28;20395;-91
2022/09/23 11:03:27;;;;;;;;;;;;;;;16.35;53.98;99892.00;5053616;28;20238;-86
2022/09/23 11:05:59;;;;;;;;;;;;;;;16.40;53.72;99886.41;5058231;28;19908;-87
2022/09/23 11:08:35;;;;;;;;;;;;;;;16.36;54.30;99888.13;5058063;28;19909;-88
2022/09/23 11:11:12;;;;;;;;;;;;;;;16.35;54.08;99883.75;5058969;28;19908;-88
2022/09/23 11:13:52;;;;;;;;;;;;;;;16.60;53.23;99884.41;5058571;28;19916;-88
2022/09/23 11:16:26;;;;;;;;;;;;;;;16.61;53.30;99875.06;5058759;28;20014;-89
2022/09/23 11:19:18;;;;;;;;;;;;;;;16.55;53.61;99881.75;5058652;28;19909;-92
2022/09/23 11:21:59;;;;;;;;;;;;;;;16.65;52.79;99872.50;5057521;28;20365;-90
2022/09/23 11:24:47;;;;;;;;;;;;;;;16.72;51.66;99874.88;5058201;28;19912;-88
2022/09/23 11:27:30;;;;;;;;;;;;;;;16.88;50.19;99862.41;5058049;28;20025;-88
2022/09/23 11:29:56;;;;;;;;;;;;;;;16.78;51.81;99863.44;5057844;28;19932;-89
2022/09/23 11:32:29;;;;;;;;;;;;;;;16.82;52.24;99866.38;5057891;28;20350;-90
2022/09/23 11:35:01;;;;;;;;;;;;;;;16.88;51.89;99862.41;5057861;28;19920;-91
2022/09/23 11:37:36;;;;;;;;;;;;;;;17.05;51.64;99855.50;5058288;28;19919;-92
2022/09/23 11:40:03;;;;;;;;;;;;;;;16.89;52.19;99853.06;5058483;28;19909;-91
2022/09/23 11:42:35;;;;;;;;;;;;;;;16.94;52.52;99846.63;5058418;28;20325;-92
2022/09/23 11:45:12;;;;;;;;;;;;;;;16.91;51.28;99856.31;5058024;28;19969;-89
2022/09/23 11:47:42;;;;;;;;;;;;;;;17.28;50.74;99847.34;5057448;28;19918;-89
2022/09/23 11:50:28;;;;;;;;;;;;;;;17.20;51.14;99837.88;5057566;28;19909;-89
2022/09/23 11:53:20;;;;;;;;;;;;;;;17.19;50.67;99844.50;5057876;28;19916;-89
2022/09/23 11:55:48;;;;;;;;;;;;;;;17.22;51.37;99845.81;5049394;28;19963;-90
2022/09/23 11:58:17;;;;;;;;;;;;;;;17.39;50.38;99842.41;5062294;28;19910;-90
2022/09/23 12:00:50;;;;;;;;;;;;;;;17.32;50.34;99844.78;5060671;28;19915;-90
2022/09/23 12:03:30;;;;;;;;;;;;;;;17.31;50.50;99835.69;5057409;28;19991;-89
2022/09/23 12:05:55;;;;;;;;;;;;;;;17.48;47.87;99831.47;5057773;28;19916;-89
2022/09/23 12:08:28;;;;;;;;;;;;;;;17.55;48.22;99839.34;5057275;28;19909;-90
2022/09/23 12:10:53;;;;;;;;;;;;;;;17.56;48.65;99830.75;5057428;28;19909;-90
2022/09/23 12:13:39;;;;;;;;;;;;;;;17.44;49.13;99833.22;5057379;28;19916;-90
2022/09/23 12:16:13;;;;;;;;;;;;;;;17.51;48.32;99828.13;5058225;28;19912;-90
2022/09/23 12:18:55;;;;;;;;;;;;;;;17.48;47.74;99834.25;5056657;28;20391;-91
2022/09/23 12:21:37;;;;;;;;;;;;;;;17.82;45.41;99827.38;5057438;28;19909;-90
2022/09/23 12:24:17;;;;;;;;;;;;;;;17.62;47.55;99824.00;5057611;28;19913;-91
2022/09/23 12:26:43;;;;;;;;;;;;;;;17.56;47.48;99824.41;5057607;28;19935;-91
2022/09/23 12:29:10;;;;;;;;;;;;;;;17.54;48.05;99821.97;5056761;28;19908;-90
2022/09/23 12:31:37;;;;;;;;;;;;;;;17.37;46.65;99815.19;5056712;28;19908;-90
2022/09/23 12:34:15;;;;;;;;;;;;;;;17.56;46.40;99816.16;5056738;28;19999;-90
2022/09/23 12:36:41;;;;;;;;;;;;;;;17.45;47.42;99813.63;5057095;28;19909;-90
2022/09/23 12:39:14;;;;;;;;;;;;;;;17.44;46.25;99809.25;5056686;28;19999;-90
2022/09/23 12:41:46;;;;;;;;;;;;;;;17.48;47.30;99806.69;5056946;28;19916;-88
2022/09/23 12:44:13;;;;;;;;;;;;;;;17.48;46.62;99812.19;5056326;28;19963;-88
2022/09/23 12:46:43;;;;;;;;;;;;;;;17.34;45.84;99809.47;5055523;28;20334;-88
2022/09/23 12:49:34;;;;;;;;;;;;;;;17.43;46.68;99806.81;5056672;28;19909;-88
2022/09/23 12:52:12;;;;;;;;;;;;;;;17.38;46.97;99803.03;5056693;28;20338;-87
2022/09/23 12:54:38;;;;;;;;;;;;;;;17.36;47.92;99805.28;5056272;28;20380;-88
2022/09/23 12:57:05;;;;;;;;;;;;;;;17.17;47.97;99804.63;5056216;28;19909;-88
2022/09/23 12:59:31;;;;;;;;;;;;;;;17.21;46.82;99803.69;5056823;28;20004;-89
2022/09/23 13:01:56;;;;;;;;;;;;;;;17.13;47.29;99802.47;5056886;28;19995;-89
2022/09/23 13:07:16;;;;;;;;;;;;;;;17.14;47.52;99795.84;5056228;28;19915;-89